Time;durP1;ratioP1;P1;durP2;ratioP2;P2;SDS_P1;SDS_P2;PMS_P1;PMS_P2;Temp;Humidity;BMP_temperature;BMP_pressure;BME280_temperature;BME280_humidity;BME280_pressure;Samples;Min_cycle;Max_cycle;Signal;HPM_P1;HPM_P2
2022/04/05 05:02:52;;;;;;;1999.90;999.90;;;;;;;;;;5086883;22;20249;-65
2022/04/05 05:05:36;;;;;;;1999.90;999.90;;;;;;;;;;5053890;28;20197;-65
2022/04/05 05:08:21;;;;;;;1999.90;999.90;;;;;;;;;;5053204;28;20263;-65
2022/04/05 05:11:06;;;;;;;1999.90;999.90;;;;;;;;;;5047450;28;20218;-65
2022/04/05 05:13:51;;;;;;;1999.90;999.90;;;;;;;;;;5032870;28;20214;-65
2022/04/05 05:16:37;;;;;;;1999.90;999.90;;;;;;;;;;5024792;28;20234;-65
2022/04/05 05:19:23;;;;;;;1999.90;999.90;;;;;;;;;;5032831;28;20698;-65
2022/04/05 05:22:08;;;;;;;1999.90;999.90;;;;;;;;;;5022978;28;20230;-66
2022/04/05 05:24:53;;;;;;;1999.90;999.90;;;;;;;;;;5033864;28;20686;-65
2022/04/05 05:27:38;;;;;;;1999.90;999.90;;;;;;;;;;5012993;28;20446;-65
2022/04/05 05:30:23;;;;;;;1999.90;999.90;;;;;;;;;;5013609;28;20261;-66
2022/04/05 05:33:08;;;;;;;1999.90;999.90;;;;;;;;;;5013608;28;20206;-66
2022/04/05 05:35:54;;;;;;;1999.90;999.90;;;;;;;;;;5013813;28;20212;-65
2022/04/05 05:38:39;;;;;;;1999.90;999.90;;;;;;;;;;5024184;28;20341;-65
2022/04/05 05:41:24;;;;;;;1999.90;999.90;;;;;;;;;;5033432;28;20226;-66
2022/04/05 05:44:09;;;;;;;1999.90;999.90;;;;;;;;;;5033090;28;20233;-65
2022/04/05 05:46:54;;;;;;;1999.90;999.90;;;;;;;;;;5033398;28;20202;-65
2022/04/05 05:49:38;;;;;;;1999.90;999.90;;;;;;;;;;5032399;28;20588;-66
2022/04/05 05:52:25;;;;;;;1999.90;999.90;;;;;;;;;;5033202;28;20217;-65
2022/04/05 05:55:10;;;;;;;1999.90;999.90;;;;;;;;;;5032456;28;20426;-65
2022/04/05 05:57:55;;;;;;;1999.90;999.90;;;;;;;;;;5032066;28;20241;-66
2022/04/05 06:00:40;;;;;;;1999.90;999.90;;;;;;;;;;5030739;28;20225;-66
2022/04/05 06:03:25;;;;;;;1999.90;999.90;;;;;;;;;;5013263;28;20226;-65
2022/04/05 06:06:10;;;;;;;1999.90;999.90;;;;;;;;;;5033022;28;20216;-66
2022/04/05 06:08:56;;;;;;;1999.90;999.90;;;;;;;;;;5032250;28;20300;-66
2022/04/05 06:11:42;;;;;;;1999.90;999.90;;;;;;;;;;5032813;28;20238;-66
2022/04/05 06:14:26;;;;;;;1999.90;999.90;;;;;;;;;;5032889;28;20201;-66
2022/04/05 06:17:11;;;;;;;1999.90;999.90;;;;;;;;;;5032765;28;20276;-65
2022/04/05 06:19:56;;;;;;;1999.90;999.90;;;;;;;;;;5016729;28;20278;-65
2022/04/05 06:22:42;;;;;;;1999.90;999.90;;;;;;;;;;5012615;28;20226;-65
2022/04/05 06:25:30;;;;;;;1999.90;999.90;;;;;;;;;;5017211;28;20716;-65
2022/04/05 06:28:18;;;;;;;1999.90;999.90;;;;;;;;;;5031875;28;20197;-65
2022/04/05 06:31:02;;;;;;;1999.90;999.90;;;;;;;;;;5031625;28;20225;-66
2022/04/05 06:33:47;;;;;;;1999.90;999.90;;;;;;;;;;5031946;28;20201;-66
2022/04/05 06:36:32;;;;;;;1999.90;999.90;;;;;;;;;;5032216;28;20280;-66
2022/04/05 06:39:17;;;;;;;1999.90;999.90;;;;;;;;;;5031060;28;20213;-65
2022/04/05 06:42:03;;;;;;;1999.90;999.90;;;;;;;;;;5016310;28;20229;-64
2022/04/05 06:44:48;;;;;;;1999.90;999.90;;;;;;;;;;5012544;28;20293;-66
2022/04/05 06:47:33;;;;;;;1999.90;999.90;;;;;;;;;;5028193;28;20205;-66
2022/04/05 06:50:20;;;;;;;1999.90;999.90;;;;;;;;;;5032232;28;20688;-66
2022/04/05 06:53:06;;;;;;;1999.90;999.90;;;;;;;;;;5030419;28;20198;-66
2022/04/05 06:55:51;;;;;;;1999.90;999.90;;;;;;;;;;5012581;28;20584;-65
2022/04/05 06:58:37;;;;;;;1999.90;999.90;;;;;;;;;;5011192;28;20432;-65
2022/04/05 07:01:22;;;;;;;1999.90;999.90;;;;;;;;;;5022889;28;20272;-66
2022/04/05 07:04:07;;;;;;;1999.90;999.90;;;;;;;;;;5030745;28;20226;-65
2022/04/05 07:06:52;;;;;;;1999.90;999.90;;;;;;;;;;5021559;28;20457;-62
2022/04/05 07:09:37;;;;;;;1999.90;999.90;;;;;;;;;;5028435;28;20210;-65
2022/04/05 07:12:23;;;;;;;1999.90;999.90;;;;;;;;;;5028974;28;20589;-62
2022/04/05 07:15:10;;;;;;;1999.90;999.90;;;;;;;;;;5030202;28;20261;-65
2022/04/05 07:17:55;;;;;;;1999.90;999.90;;;;;;;;;;5011890;28;20277;-65
2022/04/05 07:20:40;;;;;;;1999.90;999.90;;;;;;;;;;5016246;28;20280;-65
2022/04/05 07:23:25;;;;;;;1999.90;999.90;;;;;;;;;;5029982;28;20304;-66
2022/04/05 07:26:10;;;;;;;1999.90;999.90;;;;;;;;;;5031866;28;20209;-65
2022/04/05 07:28:57;;;;;;;1999.90;999.90;;;;;;;;;;5030397;28;20404;-66
2022/04/05 07:31:43;;;;;;;1999.90;999.90;;;;;;;;;;5031598;28;20229;-62
2022/04/05 07:34:28;;;;;;;1999.90;999.90;;;;;;;;;;5031491;28;20206;-65
2022/04/05 07:37:13;;;;;;;1999.90;999.90;;;;;;;;;;5030085;28;20296;-65
2022/04/05 07:39:58;;;;;;;1999.90;999.90;;;;;;;;;;5011340;28;20577;-65
2022/04/05 07:42:44;;;;;;;1999.90;999.90;;;;;;;;;;5011936;28;20225;-65
2022/04/05 07:45:29;;;;;;;1999.90;999.90;;;;;;;;;;5015323;28;20211;-65
2022/04/05 07:48:16;;;;;;;1999.90;999.90;;;;;;;;;;5021863;28;20226;-66
2022/04/05 07:51:01;;;;;;;1999.90;999.90;;;;;;;;;;5016525;28;20728;-65
2022/04/05 07:53:46;;;;;;;1999.90;999.90;;;;;;;;;;5020959;28;20198;-66
2022/04/05 07:56:31;;;;;;;1999.90;999.90;;;;;;;;;;5022777;28;20692;-65
2022/04/05 07:59:16;;;;;;;1999.90;999.90;;;;;;;;;;5020098;28;20206;-64
2022/04/05 08:02:01;;;;;;;1999.90;999.90;;;;;;;;;;5021578;28;20313;-65
2022/04/05 08:04:47;;;;;;;1999.90;999.90;;;;;;;;;;5023419;28;20225;-63
2022/04/05 08:07:32;;;;;;;1999.90;999.90;;;;;;;;;;5017740;28;20198;-64
2022/04/05 08:10:17;;;;;;;1999.90;999.90;;;;;;;;;;5026379;28;20206;-64
2022/04/05 08:13:02;;;;;;;1999.90;999.90;;;;;;;;;;5025281;28;20292;-66
2022/04/05 08:15:47;;;;;;;1999.90;999.90;;;;;;;;;;5021904;28;20226;-64
2022/04/05 08:18:32;;;;;;;1999.90;999.90;;;;;;;;;;5023871;28;20284;-66
2022/04/05 08:21:19;;;;;;;1999.90;999.90;;;;;;;;;;5019228;28;20789;-66
2022/04/05 08:24:05;;;;;;;1999.90;999.90;;;;;;;;;;5012521;28;20428;-67
2022/04/05 08:26:50;;;;;;;1999.90;999.90;;;;;;;;;;5021125;28;20330;-65
2022/04/05 08:29:39;;;;;;;1999.90;999.90;;;;;;;;;;5013444;28;20214;-65
2022/04/05 08:32:24;;;;;;;1999.90;999.90;;;;;;;;;;5023649;28;20233;-65
2022/04/05 08:35:10;;;;;;;1999.90;999.90;;;;;;;;;;5024439;28;20225;-65
2022/04/05 08:37:56;;;;;;;1999.90;999.90;;;;;;;;;;5016854;28;20218;-64
2022/04/05 08:40:41;;;;;;;1999.90;999.90;;;;;;;;;;5029080;28;20359;-65
2022/04/05 08:43:27;;;;;;;1999.90;999.90;;;;;;;;;;5022820;28;20268;-65
2022/04/05 08:46:12;;;;;;;1999.90;999.90;;;;;;;;;;5013924;28;20214;-64
2022/04/05 08:48:57;;;;;;;1999.90;999.90;;;;;;;;;;5026806;28;20412;-66
2022/04/05 08:51:42;;;;;;;1999.90;999.90;;;;;;;;;;5029458;28;20226;-66
2022/04/05 08:54:29;;;;;;;1999.90;999.90;;;;;;;;;;5015702;28;20800;-65
2022/04/05 08:57:14;;;;;;;1999.90;999.90;;;;;;;;;;5013223;28;20434;-66
2022/04/05 08:59:58;;;;;;;1999.90;999.90;;;;;;;;;;5013400;28;20290;-66
2022/04/05 09:02:52;;;;;;;1999.90;999.90;;;;;;;;;;5018226;28;20242;-65
2022/04/05 09:05:38;;;;;;;1999.90;999.90;;;;;;;;;;5026535;28;20206;-65
2022/04/05 09:08:24;;;;;;;1999.90;999.90;;;;;;;;;;5027686;28;20211;-65
2022/04/05 09:11:12;;;;;;;1999.90;999.90;;;;;;;;;;5030582;28;20353;-66
2022/04/05 09:13:59;;;;;;;1999.90;999.90;;;;;;;;;;5020131;28;20354;-66
2022/04/05 09:16:43;;;;;;;1999.90;999.90;;;;;;;;;;5015472;28;20207;-64
2022/04/05 09:19:36;;;;;;;1999.90;999.90;;;;;;;;;;5022498;28;20666;-66
2022/04/05 09:22:32;;;;;;;1999.90;999.90;;;;;;;;;;5015461;28;20282;-66
2022/04/05 09:25:17;;;;;;;1999.90;999.90;;;;;;;;;;5018323;28;20253;-65
2022/04/05 09:28:05;;;;;;;1999.90;999.90;;;;;;;;;;5012203;28;20289;-65
2022/04/05 09:30:51;;;;;;;1999.90;999.90;;;;;;;;;;5012672;28;20279;-66
2022/04/05 09:33:38;;;;;;;1999.90;999.90;;;;;;;;;;5020681;28;20206;-65
2022/04/05 09:36:32;;;;;;;1999.90;999.90;;;;;;;;;;5018999;28;20225;-65
2022/04/05 09:39:18;;;;;;;1999.90;999.90;;;;;;;;;;5024068;28;20306;-65
2022/04/05 09:42:05;;;;;;;1999.90;999.90;;;;;;;;;;5019901;28;20346;-67
2022/04/05 09:44:51;;;;;;;1999.90;999.90;;;;;;;;;;5022099;28;20235;-66
2022/04/05 09:47:36;;;;;;;1999.90;999.90;;;;;;;;;;5012249;28;20683;-64
2022/04/05 09:50:21;;;;;;;1999.90;999.90;;;;;;;;;;5028894;28;20298;-66
2022/04/05 09:53:06;;;;;;;1999.90;999.90;;;;;;;;;;5017048;28;20207;-66
2022/04/05 09:56:01;;;;;;;1999.90;999.90;;;;;;;;;;5027640;28;20800;-66
2022/04/05 09:58:48;;;;;;;1999.90;999.90;;;;;;;;;;5011436;28;20702;-65
2022/04/05 10:01:35;;;;;;;1999.90;999.90;;;;;;;;;;5021678;28;20340;-65
2022/04/05 10:04:21;;;;;;;1999.90;999.90;;;;;;;;;;5019685;28;20216;-66
2022/04/05 10:07:05;;;;;;;1999.90;999.90;;;;;;;;;;5022354;28;20212;-66
2022/04/05 10:09:51;;;;;;;1999.90;999.90;;;;;;;;;;5029040;28;20349;-65
2022/04/05 10:12:36;;;;;;;1999.90;999.90;;;;;;;;;;5015180;28;20235;-65
2022/04/05 10:15:21;;;;;;;1999.90;999.90;;;;;;;;;;5029335;28;20202;-64
2022/04/05 10:18:08;;;;;;;1999.90;999.90;;;;;;;;;;5017308;28;21007;-65
2022/04/05 10:20:54;;;;;;;1999.90;999.90;;;;;;;;;;5017475;28;20311;-66
2022/04/05 10:23:42;;;;;;;1999.90;999.90;;;;;;;;;;5028447;28;20303;-65
2022/04/05 10:26:28;;;;;;;1999.90;999.90;;;;;;;;;;5014047;28;20405;-64
2022/04/05 10:29:15;;;;;;;1999.90;999.90;;;;;;;;;;5016948;28;20279;-65
2022/04/05 10:32:02;;;;;;;1999.90;999.90;;;;;;;;;;5014347;28;20307;-66
2022/04/05 10:34:53;;;;;;;1999.90;999.90;;;;;;;;;;5014927;28;20213;-66
2022/04/05 10:37:39;;;;;;;1999.90;999.90;;;;;;;;;;5021377;28;20232;-65
2022/04/05 10:40:24;;;;;;;1999.90;999.90;;;;;;;;;;5021505;28;20560;-66
2022/04/05 10:43:16;;;;;;;1999.90;999.90;;;;;;;;;;5023106;28;20574;-65
2022/04/05 10:46:01;;;;;;;1999.90;999.90;;;;;;;;;;5022818;28;20694;-65
2022/04/05 10:48:56;;;;;;;1999.90;999.90;;;;;;;;;;5014332;28;20679;-66
2022/04/05 10:52:06;;;;;;;1999.90;999.90;;;;;;;;;;5028930;28;20822;-65
2022/04/05 10:54:52;;;;;;;1999.90;999.90;;;;;;;;;;5019006;28;21124;-65
2022/04/05 10:57:38;;;;;;;1999.90;999.90;;;;;;;;;;5022764;28;20309;-63
2022/04/05 11:00:25;;;;;;;1999.90;999.90;;;;;;;;;;5013922;28;20698;-62
2022/04/05 11:03:11;;;;;;;1999.90;999.90;;;;;;;;;;5024131;28;20188;-66
2022/04/05 11:06:03;;;;;;;1999.90;999.90;;;;;;;;;;5017332;28;20355;-65
2022/04/05 11:08:52;;;;;;;1999.90;999.90;;;;;;;;;;5017136;28;20697;-65
2022/04/05 11:11:42;;;;;;;1999.90;999.90;;;;;;;;;;5010712;28;20305;-65
2022/04/05 11:14:34;;;;;;;1999.90;999.90;;;;;;;;;;5027736;28;20204;-66
2022/04/05 11:17:21;;;;;;;1999.90;999.90;;;;;;;;;;5015205;28;20576;-64
2022/04/05 11:20:07;;;;;;;1999.90;999.90;;;;;;;;;;5016478;28;20212;-66
2022/04/05 11:22:59;;;;;;;1999.90;999.90;;;;;;;;;;5015783;28;20216;-65
2022/04/05 11:25:46;;;;;;;1999.90;999.90;;;;;;;;;;5025249;28;20360;-66
2022/04/05 11:28:45;;;;;;;1999.90;999.90;;;;;;;;;;5020062;28;20423;-66
2022/04/05 11:31:32;;;;;;;1999.90;999.90;;;;;;;;;;5017480;28;20232;-66
2022/04/05 11:34:37;;;;;;;1999.90;999.90;;;;;;;;;;5028133;28;20204;-65
2022/04/05 11:37:33;;;;;;;1999.90;999.90;;;;;;;;;;5022078;28;20202;-65
2022/04/05 11:40:18;;;;;;;1999.90;999.90;;;;;;;;;;5015388;28;20899;-65
2022/04/05 11:43:04;;;;;;;1999.90;999.90;;;;;;;;;;5028668;28;20291;-65
2022/04/05 11:45:50;;;;;;;1999.90;999.90;;;;;;;;;;5015713;28;20323;-65
2022/04/05 11:48:35;;;;;;;1999.90;999.90;;;;;;;;;;5012373;28;20217;-65
2022/04/05 11:51:21;;;;;;;1999.90;999.90;;;;;;;;;;5015001;28;20594;-65
2022/04/05 11:54:07;;;;;;;1999.90;999.90;;;;;;;;;;5014440;28;20221;-65
2022/04/05 11:56:54;;;;;;;1999.90;999.90;;;;;;;;;;5014540;28;20217;-66
2022/04/05 11:59:40;;;;;;;1999.90;999.90;;;;;;;;;;5014562;28;20757;-66
2022/04/05 12:02:28;;;;;;;1999.90;999.90;;;;;;;;;;5026593;28;20355;-66
2022/04/05 12:05:13;;;;;;;1999.90;999.90;;;;;;;;;;5019721;28;20238;-66
2022/04/05 12:07:58;;;;;;;1999.90;999.90;;;;;;;;;;5022306;28;20279;-66
2022/04/05 12:10:44;;;;;;;1999.90;999.90;;;;;;;;;;5032099;28;20232;-66
2022/04/05 12:13:29;;;;;;;1999.90;999.90;;;;;;;;;;5027405;28;20212;-65
2022/04/05 12:16:15;;;;;;;1999.90;999.90;;;;;;;;;;5016506;28;20212;-66
2022/04/05 12:19:01;;;;;;;1999.90;999.90;;;;;;;;;;5023395;28;20219;-66
2022/04/05 12:21:46;;;;;;;1999.90;999.90;;;;;;;;;;5018109;28;20234;-66
2022/04/05 12:24:31;;;;;;;1999.90;999.90;;;;;;;;;;5026909;28;20721;-66
2022/04/05 12:27:18;;;;;;;1999.90;999.90;;;;;;;;;;5014022;28;20688;-65
2022/04/05 12:30:04;;;;;;;1999.90;999.90;;;;;;;;;;5013565;28;20337;-66
2022/04/05 12:32:51;;;;;;;1999.90;999.90;;;;;;;;;;5015929;28;20349;-66
2022/04/05 12:35:36;;;;;;;1999.90;999.90;;;;;;;;;;5027522;28;20208;-65
2022/04/05 12:38:21;;;;;;;1999.90;999.90;;;;;;;;;;5013082;28;20575;-64
2022/04/05 12:41:13;;;;;;;1999.90;999.90;;;;;;;;;;5024204;28;20247;-65
2022/04/05 12:44:08;;;;;;;1999.90;999.90;;;;;;;;;;5013625;28;20205;-64
2022/04/05 12:46:53;;;;;;;1999.90;999.90;;;;;;;;;;5028513;28;20213;-65
2022/04/05 12:49:41;;;;;;;1999.90;999.90;;;;;;;;;;5023208;28;20219;-66
2022/04/05 12:52:27;;;;;;;1999.90;999.90;;;;;;;;;;5016299;28;20599;-65
2022/04/05 12:55:14;;;;;;;1999.90;999.90;;;;;;;;;;5028793;28;20213;-66
2022/04/05 12:57:59;;;;;;;1999.90;999.90;;;;;;;;;;5028015;28;20217;-66
2022/04/05 13:00:44;;;;;;;1999.90;999.90;;;;;;;;;;5029753;28;20232;-66
2022/04/05 13:03:30;;;;;;;1999.90;999.90;;;;;;;;;;5023449;28;20221;-66
2022/04/05 13:06:26;;;;;;;1999.90;999.90;;;;;;;;;;5017448;28;20224;-65
2022/04/05 13:09:14;;;;;;;1999.90;999.90;;;;;;;;;;5030154;28;20209;-66
2022/04/05 13:12:12;;;;;;;1999.90;999.90;;;;;;;;;;5027465;28;20233;-65
2022/04/05 13:15:10;;;;;;;1999.90;999.90;;;;;;;;;;5012979;28;20220;-66
2022/04/05 13:18:03;;;;;;;1999.90;999.90;;;;;;;;;;5016588;28;20212;-66
2022/04/05 13:20:58;;;;;;;1999.90;999.90;;;;;;;;;;5012895;28;20248;-66
2022/04/05 13:23:59;;;;;;;1999.90;999.90;;;;;;;;;;5013031;28;20336;-66
2022/04/05 13:26:45;;;;;;;1999.90;999.90;;;;;;;;;;5013911;28;20203;-66
2022/04/05 13:29:30;;;;;;;1999.90;999.90;;;;;;;;;;5021658;28;20256;-66
2022/04/05 13:32:16;;;;;;;1999.90;999.90;;;;;;;;;;5011278;28;21013;-66
2022/04/05 13:35:01;;;;;;;1999.90;999.90;;;;;;;;;;5021755;28;20275;-66
2022/04/05 13:37:46;;;;;;;1999.90;999.90;;;;;;;;;;5027023;28;20218;-65
2022/04/05 13:40:33;;;;;;;1999.90;999.90;;;;;;;;;;5029943;28;20220;-65
2022/04/05 13:43:19;;;;;;;1999.90;999.90;;;;;;;;;;5019885;28;20582;-65
2022/04/05 13:46:04;;;;;;;1999.90;999.90;;;;;;;;;;5028805;28;20243;-66
2022/04/05 13:48:50;;;;;;;1999.90;999.90;;;;;;;;;;5018507;28;20694;-66
2022/04/05 13:51:35;;;;;;;1999.90;999.90;;;;;;;;;;5015747;28;20225;-65
2022/04/05 13:54:21;;;;;;;1999.90;999.90;;;;;;;;;;5018419;28;20222;-65
2022/04/05 13:57:10;;;;;;;1999.90;999.90;;;;;;;;;;5024543;28;20308;-66
2022/04/05 13:59:55;;;;;;;1999.90;999.90;;;;;;;;;;5029016;28;20213;-66
2022/04/05 14:02:40;;;;;;;1999.90;999.90;;;;;;;;;;5024420;28;20327;-66
2022/04/05 14:05:25;;;;;;;1999.90;999.90;;;;;;;;;;5020826;28;20303;-66
2022/04/05 14:08:10;;;;;;;1999.90;999.90;;;;;;;;;;5011692;28;20212;-66
2022/04/05 14:10:55;;;;;;;1999.90;999.90;;;;;;;;;;5014225;28;20237;-66
2022/04/05 14:13:42;;;;;;;1999.90;999.90;;;;;;;;;;5018032;28;20724;-66
2022/04/05 14:16:27;;;;;;;1999.90;999.90;;;;;;;;;;5028058;28;20602;-66
2022/04/05 14:19:12;;;;;;;1999.90;999.90;;;;;;;;;;5026967;28;20255;-66
2022/04/05 14:21:58;;;;;;;1999.90;999.90;;;;;;;;;;5018042;28;20830;-66
2022/04/05 14:24:43;;;;;;;1999.90;999.90;;;;;;;;;;5027785;28;20601;-67
2022/04/05 14:27:28;;;;;;;1999.90;999.90;;;;;;;;;;5028152;28;20658;-65
2022/04/05 14:30:15;;;;;;;1999.90;999.90;;;;;;;;;;5013780;28;20581;-66
2022/04/05 14:33:00;;;;;;;1999.90;999.90;;;;;;;;;;5023150;28;20420;-66
2022/04/05 14:35:45;;;;;;;1999.90;999.90;;;;;;;;;;5015910;28;20951;-66
2022/04/05 14:38:30;;;;;;;1999.90;999.90;;;;;;;;;;5020741;28;20212;-65
2022/04/05 14:41:18;;;;;;;1999.90;999.90;;;;;;;;;;5014415;28;20233;-67
2022/04/05 14:44:04;;;;;;;1999.90;999.90;;;;;;;;;;5026527;28;20208;-68
2022/04/05 14:46:50;;;;;;;1999.90;999.90;;;;;;;;;;5016525;28;20705;-67
2022/04/05 14:49:35;;;;;;;1999.90;999.90;;;;;;;;;;5020756;28;20209;-65
2022/04/05 14:52:20;;;;;;;1999.90;999.90;;;;;;;;;;5020099;28;20726;-68
2022/04/05 14:55:06;;;;;;;1999.90;999.90;;;;;;;;;;5019631;28;20303;-67
2022/04/05 14:57:50;;;;;;;1999.90;999.90;;;;;;;;;;5022600;28;20279;-66
2022/04/05 15:00:35;;;;;;;1999.90;999.90;;;;;;;;;;5019064;28;20207;-67
2022/04/05 15:03:22;;;;;;;1999.90;999.90;;;;;;;;;;5019084;28;20927;-67
2022/04/05 15:06:08;;;;;;;1999.90;999.90;;;;;;;;;;5018482;28;20225;-66
2022/04/05 15:08:53;;;;;;;1999.90;999.90;;;;;;;;;;5018795;28;20214;-68
2022/04/05 15:11:38;;;;;;;1999.90;999.90;;;;;;;;;;5022005;28;20733;-66
2022/04/05 15:14:23;;;;;;;1999.90;999.90;;;;;;;;;;5021769;28;20578;-67
2022/04/05 15:17:08;;;;;;;1999.90;999.90;;;;;;;;;;5016770;28;20701;-66
2022/04/05 15:19:55;;;;;;;1999.90;999.90;;;;;;;;;;5011409;28;20620;-67
2022/04/05 15:22:39;;;;;;;1999.90;999.90;;;;;;;;;;5024225;28;20235;-67
2022/04/05 15:25:24;;;;;;;1999.90;999.90;;;;;;;;;;5019541;28;20219;-67
2022/04/05 15:28:09;;;;;;;1999.90;999.90;;;;;;;;;;5020118;28;20720;-67
2022/04/05 15:30:55;;;;;;;1999.90;999.90;;;;;;;;;;5026284;28;20611;-67
2022/04/05 15:33:40;;;;;;;1999.90;999.90;;;;;;;;;;5022090;28;20211;-67
2022/04/05 15:36:27;;;;;;;1999.90;999.90;;;;;;;;;;5020700;28;20203;-66
2022/04/05 15:39:12;;;;;;;1999.90;999.90;;;;;;;;;;5018532;28;20223;-68
2022/04/05 15:41:57;;;;;;;1999.90;999.90;;;;;;;;;;5034955;28;20233;-67
2022/04/05 15:44:42;;;;;;;1999.90;999.90;;;;;;;;;;5028194;28;20299;-67
2022/04/05 15:47:27;;;;;;;1999.90;999.90;;;;;;;;;;5034780;28;20706;-68
2022/04/05 15:50:12;;;;;;;1999.90;999.90;;;;;;;;;;5026644;28;20210;-67
2022/04/05 15:52:58;;;;;;;1999.90;999.90;;;;;;;;;;5026346;28;20221;-68
2022/04/05 15:55:43;;;;;;;1999.90;999.90;;;;;;;;;;5026797;28;20197;-68
2022/04/05 15:58:28;;;;;;;1999.90;999.90;;;;;;;;;;5034530;28;20299;-69
2022/04/05 16:01:13;;;;;;;1999.90;999.90;;;;;;;;;;5034671;28;20251;-67
2022/04/05 16:03:58;;;;;;;1999.90;999.90;;;;;;;;;;5035994;28;20297;-68
2022/04/05 16:06:43;;;;;;;1999.90;999.90;;;;;;;;;;5035042;28;20262;-67
2022/04/05 16:09:29;;;;;;;1999.90;999.90;;;;;;;;;;5035721;28;20214;-67
2022/04/05 16:12:15;;;;;;;1999.90;999.90;;;;;;;;;;5035048;28;20918;-68
2022/04/05 16:15:00;;;;;;;1999.90;999.90;;;;;;;;;;5034726;28;20296;-68
2022/04/05 16:17:45;;;;;;;1999.90;999.90;;;;;;;;;;5034501;28;20218;-68
2022/04/05 16:20:30;;;;;;;1999.90;999.90;;;;;;;;;;5033926;28;20228;-68
2022/04/05 16:23:16;;;;;;;1999.90;999.90;;;;;;;;;;5034148;28;20735;-67
2022/04/05 16:26:02;;;;;;;1999.90;999.90;;;;;;;;;;5034189;28;20290;-67
2022/04/05 16:28:47;;;;;;;1999.90;999.90;;;;;;;;;;5034086;28;20203;-66
2022/04/05 16:31:32;;;;;;;1999.90;999.90;;;;;;;;;;5033859;28;20228;-68
2022/04/05 16:34:17;;;;;;;1999.90;999.90;;;;;;;;;;5034301;28;20579;-68
2022/04/05 16:37:02;;;;;;;1999.90;999.90;;;;;;;;;;5033046;28;20489;-68
2022/04/05 16:39:47;;;;;;;1999.90;999.90;;;;;;;;;;5033908;28;20220;-68
2022/04/05 16:42:33;;;;;;;1999.90;999.90;;;;;;;;;;5034167;28;20725;-68
2022/04/05 16:45:18;;;;;;;1999.90;999.90;;;;;;;;;;5034474;28;20290;-68
2022/04/05 16:48:03;;;;;;;1999.90;999.90;;;;;;;;;;5032337;28;20199;-67
2022/04/05 16:50:48;;;;;;;1999.90;999.90;;;;;;;;;;5034382;28;20278;-67
2022/04/05 16:53:33;;;;;;;1999.90;999.90;;;;;;;;;;5033441;28;20207;-66
2022/04/05 16:56:18;;;;;;;1999.90;999.90;;;;;;;;;;5033930;28;20202;-67
2022/04/05 16:59:05;;;;;;;1999.90;999.90;;;;;;;;;;5033126;28;20218;-68
2022/04/05 17:01:50;;;;;;;1999.90;999.90;;;;;;;;;;5032948;28;20243;-68
2022/04/05 17:04:34;;;;;;;1999.90;999.90;;;;;;;;;;5033183;28;20692;-68
2022/04/05 17:07:19;;;;;;;1999.90;999.90;;;;;;;;;;5017297;28;20246;-68
2022/04/05 17:10:05;;;;;;;1999.90;999.90;;;;;;;;;;5018981;28;20296;-68
2022/04/05 17:12:50;;;;;;;1999.90;999.90;;;;;;;;;;5033742;28;20203;-68
2022/04/05 17:15:36;;;;;;;1999.90;999.90;;;;;;;;;;5033993;28;20205;-68
2022/04/05 17:18:22;;;;;;;1999.90;999.90;;;;;;;;;;5032784;28;20205;-68
2022/04/05 17:21:07;;;;;;;1999.90;999.90;;;;;;;;;;5032847;28;20229;-69
2022/04/05 17:23:52;;;;;;;1999.90;999.90;;;;;;;;;;5033244;28;20210;-68
2022/04/05 17:26:38;;;;;;;1999.90;999.90;;;;;;;;;;5032507;28;20321;-67
2022/04/05 17:29:23;;;;;;;1999.90;999.90;;;;;;;;;;5031804;28;20680;-67
2022/04/05 17:32:10;;;;;;;1999.90;999.90;;;;;;;;;;5032500;28;20835;-68
2022/04/05 17:34:55;;;;;;;1999.90;999.90;;;;;;;;;;5032009;28;20203;-67
2022/04/05 17:37:40;;;;;;;1999.90;999.90;;;;;;;;;;5032295;28;20786;-67
2022/04/05 17:40:25;;;;;;;1999.90;999.90;;;;;;;;;;5031470;28;20460;-68
2022/04/05 17:43:10;;;;;;;1999.90;999.90;;;;;;;;;;5033632;28;20206;-68
2022/04/05 17:45:55;;;;;;;1999.90;999.90;;;;;;;;;;5026851;28;20239;-68
2022/04/05 17:48:41;;;;;;;1999.90;999.90;;;;;;;;;;5028132;28;20205;-68
2022/04/05 17:51:26;;;;;;;1999.90;999.90;;;;;;;;;;5018392;28;20228;-67
2022/04/05 17:54:11;;;;;;;1999.90;999.90;;;;;;;;;;5027031;28;20209;-67
2022/04/05 17:56:57;;;;;;;1999.90;999.90;;;;;;;;;;5033149;28;20577;-68
2022/04/05 17:59:42;;;;;;;1999.90;999.90;;;;;;;;;;5027386;28;20213;-67
2022/04/05 18:02:27;;;;;;;1999.90;999.90;;;;;;;;;;5014270;28;20701;-66
2022/04/05 18:05:13;;;;;;;1999.90;999.90;;;;;;;;;;5028381;28;20284;-68
2022/04/05 18:07:58;;;;;;;1999.90;999.90;;;;;;;;;;5029580;28;20253;-68
2022/04/05 18:10:44;;;;;;;1999.90;999.90;;;;;;;;;;5018240;28;20542;-68
2022/04/05 18:13:29;;;;;;;1999.90;999.90;;;;;;;;;;5030171;28;20208;-67
2022/04/05 18:16:14;;;;;;;1999.90;999.90;;;;;;;;;;5032611;28;20214;-67
2022/04/05 18:18:59;;;;;;;1999.90;999.90;;;;;;;;;;5030985;28;20214;-68
2022/04/05 18:21:45;;;;;;;1999.90;999.90;;;;;;;;;;5032482;28;20231;-68
2022/04/05 18:24:31;;;;;;;1999.90;999.90;;;;;;;;;;5032596;28;20227;-67
2022/04/05 18:27:15;;;;;;;1999.90;999.90;;;;;;;;;;5032248;28;20304;-68
2022/04/05 18:30:00;;;;;;;1999.90;999.90;;;;;;;;;;5031915;28;20202;-68
2022/04/05 18:32:46;;;;;;;1999.90;999.90;;;;;;;;;;5031624;28;20234;-68
2022/04/05 18:35:31;;;;;;;1999.90;999.90;;;;;;;;;;5032529;28;20255;-67
2022/04/05 18:38:19;;;;;;;1999.90;999.90;;;;;;;;;;5031233;28;20697;-67
2022/04/05 18:41:04;;;;;;;1999.90;999.90;;;;;;;;;;5021162;28;20313;-66
2022/04/05 18:43:49;;;;;;;1999.90;999.90;;;;;;;;;;5012569;28;20214;-68
2022/04/05 18:46:34;;;;;;;1999.90;999.90;;;;;;;;;;5012360;28;20366;-66
2022/04/05 18:49:19;;;;;;;1999.90;999.90;;;;;;;;;;5025046;28;20210;-66
2022/04/05 18:52:04;;;;;;;1999.90;999.90;;;;;;;;;;5032070;28;20226;-68
2022/04/05 18:54:51;;;;;;;1999.90;999.90;;;;;;;;;;5015803;28;20749;-68
2022/04/05 18:57:35;;;;;;;1999.90;999.90;;;;;;;;;;5031693;28;20201;-67
2022/04/05 19:00:21;;;;;;;1999.90;999.90;;;;;;;;;;5031471;28;20712;-68
2022/04/05 19:03:06;;;;;;;1999.90;999.90;;;;;;;;;;5023035;28;20701;-68
2022/04/05 19:05:51;;;;;;;1999.90;999.90;;;;;;;;;;5024745;28;20210;-68
2022/04/05 19:08:36;;;;;;;1999.90;999.90;;;;;;;;;;5012365;28;20306;-67
2022/04/05 19:11:24;;;;;;;1999.90;999.90;;;;;;;;;;5030432;28;20226;-68
2022/04/05 19:14:10;;;;;;;1999.90;999.90;;;;;;;;;;5032016;28;20246;-68
2022/04/05 19:16:54;;;;;;;1999.90;999.90;;;;;;;;;;5031359;28;20209;-68
2022/04/05 19:19:39;;;;;;;1999.90;999.90;;;;;;;;;;5030856;28;20800;-68
2022/04/05 19:22:24;;;;;;;1999.90;999.90;;;;;;;;;;5016412;28;20258;-68
2022/04/05 19:25:09;;;;;;;1999.90;999.90;;;;;;;;;;5012015;28;20849;-68
2022/04/05 19:27:56;;;;;;;1999.90;999.90;;;;;;;;;;5011000;28;20241;-67
2022/04/05 19:30:40;;;;;;;1999.90;999.90;;;;;;;;;;5011668;28;20333;-68
2022/04/05 19:33:25;;;;;;;1999.90;999.90;;;;;;;;;;5025635;28;20205;-68
2022/04/05 19:36:12;;;;;;;1999.90;999.90;;;;;;;;;;5031753;28;20284;-68
2022/04/05 19:38:57;;;;;;;1999.90;999.90;;;;;;;;;;5030721;28;20683;-68
2022/04/05 19:41:42;;;;;;;1999.90;999.90;;;;;;;;;;5027506;28;20261;-68
2022/04/05 19:44:28;;;;;;;1999.90;999.90;;;;;;;;;;5011868;28;20697;-67
2022/04/05 19:47:13;;;;;;;1999.90;999.90;;;;;;;;;;5027641;28;20233;-68
2022/04/05 19:49:58;;;;;;;1999.90;999.90;;;;;;;;;;5030672;28;20210;-68
2022/04/05 19:52:43;;;;;;;1999.90;999.90;;;;;;;;;;5031424;28;20309;-67
2022/04/05 19:55:28;;;;;;;1999.90;999.90;;;;;;;;;;5031566;28;20224;-68
2022/04/05 19:58:13;;;;;;;1999.90;999.90;;;;;;;;;;5030806;28;20276;-68
2022/04/05 20:00:59;;;;;;;1999.90;999.90;;;;;;;;;;5030984;28;20242;-68
2022/04/05 20:03:44;;;;;;;1999.90;999.90;;;;;;;;;;5024180;28;20222;-68
2022/04/05 20:06:29;;;;;;;1999.90;999.90;;;;;;;;;;5031056;28;20587;-68
2022/04/05 20:09:14;;;;;;;1999.90;999.90;;;;;;;;;;5030515;28;20735;-68
2022/04/05 20:11:59;;;;;;;1999.90;999.90;;;;;;;;;;5031291;28;20301;-68
2022/04/05 20:14:44;;;;;;;1999.90;999.90;;;;;;;;;;5031416;28;20213;-68
2022/04/05 20:20:34;;;;;;;1999.90;999.90;;;;;;;;;;5013275;28;20211;-67
2022/04/05 20:23:19;;;;;;;1999.90;999.90;;;;;;;;;;5022164;28;20905;-68
2022/04/05 20:26:04;;;;;;;1999.90;999.90;;;;;;;;;;5024276;28;20310;-67
2022/04/05 20:28:49;;;;;;;1999.90;999.90;;;;;;;;;;5017850;28;20206;-66
2022/04/05 20:31:33;;;;;;;1999.90;999.90;;;;;;;;;;5015932;28;20222;-67